Time;durP1;ratioP1;P1;durP2;ratioP2;P2;SDS_P1;SDS_P2;PMS_P1;PMS_P2;Temp;Humidity;BMP_temperature;BMP_pressure;BME280_temperature;BME280_humidity;BME280_pressure;Samples;Min_cycle;Max_cycle;Signal;HPM_P1;HPM_P2
2022/04/05 00:02:50;;;;;;;10.00;8.00;;;;;;;3.92;62.86;98281.92;128517;1287;98458;-74
2022/04/05 00:05:53;;;;;;;9.90;7.70;;;;;;;3.95;64.17;98280.09;128450;1286;98785;-74
2022/04/05 00:08:56;;;;;;;10.20;7.60;;;;;;;3.92;63.61;98277.90;128418;1287;98024;-73
2022/04/05 00:11:59;;;;;;;10.40;7.70;;;;;;;3.89;63.77;98278.02;128398;1287;98095;-74
2022/04/05 00:15:05;;;;;;;9.10;7.30;;;;;;;3.83;63.50;98274.94;128448;1287;98095;-72
2022/04/05 00:18:07;;;;;;;9.10;7.40;;;;;;;3.83;63.85;98271.96;128440;1287;98825;-71
2022/04/05 00:21:10;;;;;;;7.40;6.10;;;;;;;3.84;63.89;98266.92;128519;1287;98805;-71
2022/04/05 00:24:13;;;;;;;7.50;6.60;;;;;;;3.89;64.11;98262.06;128310;1286;150064;-72
2022/04/05 00:27:15;;;;;;;8.20;6.70;;;;;;;3.92;63.84;98263.09;128463;1287;97997;-69
2022/04/05 00:30:19;;;;;;;9.00;7.60;;;;;;;3.93;64.38;98260.91;128273;1287;99185;-72
2022/04/05 00:33:21;;;;;;;8.70;6.90;;;;;;;3.92;64.00;98257.80;128397;1287;98093;-74
2022/04/05 00:36:24;;;;;;;7.80;6.70;;;;;;;3.90;64.21;98248.70;128399;1287;99166;-74
2022/04/05 00:39:27;;;;;;;8.30;7.00;;;;;;;3.88;64.34;98246.00;128411;1287;98016;-76
2022/04/05 00:42:29;;;;;;;9.20;7.20;;;;;;;3.82;64.65;98239.17;128436;1287;99204;-73
2022/04/05 00:45:33;;;;;;;8.00;6.30;;;;;;;3.80;64.43;98229.95;128551;1287;99198;-74
2022/04/05 00:48:48;;;;;;;6.70;5.50;;;;;;;3.82;64.79;98222.13;128588;1287;98340;-72
2022/04/05 00:51:51;;;;;;;8.90;6.10;;;;;;;3.84;64.47;98216.43;128550;1287;98094;-73
2022/04/05 00:54:56;;;;;;;7.50;6.30;;;;;;;3.89;64.27;98214.40;128410;1286;98022;-72
2022/04/05 00:58:02;;;;;;;8.60;7.00;;;;;;;3.90;64.91;98213.58;128270;1287;98100;-72
2022/04/05 01:01:05;;;;;;;7.60;6.80;;;;;;;3.87;64.90;98214.76;128201;1287;98099;-73
2022/04/05 01:04:09;;;;;;;8.50;7.50;;;;;;;3.85;65.20;98214.20;128385;1287;98140;-75
2022/04/05 01:07:16;;;;;;;10.70;7.70;;;;;;;3.81;65.25;98210.13;128321;1288;98090;-73
2022/04/05 01:10:21;;;;;;;9.60;7.40;;;;;;;3.79;65.42;98212.08;128345;1287;99073;-74
2022/04/05 01:13:23;;;;;;;8.40;7.00;;;;;;;3.79;65.17;98214.54;128547;1287;99188;-74
2022/04/05 01:16:27;;;;;;;9.30;7.60;;;;;;;3.85;65.66;98213.70;128406;1286;99227;-75
2022/04/05 01:19:30;;;;;;;10.20;8.70;;;;;;;3.90;65.46;98208.14;128396;1287;98542;-75
2022/04/05 01:22:33;;;;;;;10.10;8.40;;;;;;;3.95;65.48;98203.70;128458;1287;98146;-73
2022/04/05 01:25:35;;;;;;;10.90;9.20;;;;;;;3.99;65.47;98201.43;128382;1287;99091;-73
2022/04/05 01:28:38;;;;;;;11.80;9.90;;;;;;;3.99;65.67;98197.14;128489;1287;99183;-72
2022/04/05 01:31:43;;;;;;;12.10;9.60;;;;;;;3.98;65.92;98190.91;128416;1287;99205;-75
2022/04/05 01:34:46;;;;;;;13.00;9.80;;;;;;;3.99;66.38;98189.46;128488;1287;99188;-74
2022/04/05 01:37:48;;;;;;;10.60;8.80;;;;;;;4.01;66.52;98189.05;128408;1287;98180;-74
2022/04/05 01:40:51;;;;;;;10.80;9.20;;;;;;;4.03;67.12;98185.64;128481;1287;98026;-75
2022/04/05 01:43:54;;;;;;;10.90;9.20;;;;;;;4.06;66.87;98185.08;128427;1287;98785;-74
2022/04/05 01:46:56;;;;;;;11.20;9.10;;;;;;;4.11;66.96;98181.99;128524;1287;98074;-72
2022/04/05 01:49:59;;;;;;;12.50;9.80;;;;;;;4.12;67.13;98177.97;128431;1287;99148;-75
2022/04/05 01:53:02;;;;;;;10.20;8.90;;;;;;;4.11;66.71;98176.48;128485;1287;99203;-75
2022/04/05 01:56:05;;;;;;;11.90;9.40;;;;;;;4.12;66.91;98177.45;128504;1287;99242;-75
2022/04/05 01:59:08;;;;;;;12.30;9.60;;;;;;;4.14;67.26;98170.71;128381;1287;98836;-75
2022/04/05 02:02:12;;;;;;;10.10;8.00;;;;;;;4.16;67.38;98170.55;128416;1287;98083;-72
2022/04/05 02:05:15;;;;;;;9.40;7.90;;;;;;;4.20;67.34;98177.88;128434;1287;97987;-71
2022/04/05 02:08:18;;;;;;;10.00;8.30;;;;;;;4.27;67.24;98176.23;128444;1287;99099;-72
2022/04/05 02:11:22;;;;;;;10.20;8.50;;;;;;;4.30;67.64;98167.26;128456;1287;98083;-72
2022/04/05 02:14:27;;;;;;;10.50;8.50;;;;;;;4.31;67.18;98167.81;128559;1287;98079;-72
2022/04/05 02:17:30;;;;;;;10.00;8.60;;;;;;;4.33;67.30;98170.95;128552;1287;99119;-72
2022/04/05 02:20:34;;;;;;;10.80;8.90;;;;;;;4.30;67.79;98174.98;128479;1287;100964;-73
2022/04/05 02:23:37;;;;;;;10.00;8.40;;;;;;;4.28;68.00;98172.64;128352;1287;98116;-73
2022/04/05 02:26:46;;;;;;;9.60;7.90;;;;;;;4.29;68.02;98172.08;128404;1287;99201;-73
2022/04/05 02:29:50;;;;;;;11.50;8.40;;;;;;;4.35;67.72;98174.17;128410;1287;99097;-73
2022/04/05 02:32:57;;;;;;;10.60;8.80;;;;;;;4.41;67.89;98166.31;128416;1287;98707;-72
2022/04/05 02:36:00;;;;;;;11.00;8.90;;;;;;;4.43;67.82;98159.73;128357;1287;99076;-71
2022/04/05 02:39:04;;;;;;;11.20;9.10;;;;;;;4.45;68.14;98158.67;128155;1287;98672;-72
2022/04/05 02:42:10;;;;;;;11.80;9.00;;;;;;;4.43;68.27;98157.10;128138;1287;99208;-75
2022/04/05 02:45:15;;;;;;;12.10;8.80;;;;;;;4.42;68.02;98149.61;128397;1287;100886;-72
2022/04/05 02:48:19;;;;;;;9.70;8.50;;;;;;;4.45;68.19;98148.45;128372;1287;99230;-71
2022/04/05 02:51:23;;;;;;;12.10;9.60;;;;;;;4.48;68.09;98148.58;128371;1287;99206;-72
2022/04/05 02:54:27;;;;;;;11.20;9.40;;;;;;;4.54;67.86;98143.95;128527;1287;98002;-73
2022/04/05 02:57:35;;;;;;;12.10;9.60;;;;;;;4.55;68.13;98145.73;128503;1287;98705;-74
2022/04/05 03:00:39;;;;;;;12.50;10.10;;;;;;;4.58;67.80;98144.02;128456;1287;99322;-74
2022/04/05 03:03:47;;;;;;;12.20;10.20;;;;;;;4.61;68.26;98140.88;128424;1287;98709;-75
2022/04/05 03:06:51;;;;;;;12.90;9.80;;;;;;;4.61;67.79;98137.94;128398;1287;98041;-73
2022/04/05 03:09:54;;;;;;;11.30;9.00;;;;;;;4.60;68.08;98139.79;128435;1287;98810;-73
2022/04/05 03:12:58;;;;;;;11.30;9.10;;;;;;;4.61;68.26;98131.95;128470;1287;98041;-74
2022/04/05 03:16:01;;;;;;;12.50;9.90;;;;;;;4.65;68.30;98136.54;128668;1287;98092;-77
2022/04/05 03:19:05;;;;;;;11.60;9.70;;;;;;;4.69;68.25;98135.02;128595;1287;122163;-77
2022/04/05 03:22:09;;;;;;;11.80;10.00;;;;;;;4.75;68.02;98133.35;128581;1287;98279;-74
2022/04/05 03:25:12;;;;;;;12.00;10.30;;;;;;;4.77;68.30;98127.17;128526;1287;98001;-75
2022/04/05 03:28:15;;;;;;;11.90;10.20;;;;;;;4.74;68.39;98125.70;128351;1287;97997;-76
2022/04/05 03:31:18;;;;;;;14.20;10.90;;;;;;;4.69;68.43;98128.38;128576;1287;97984;-76
2022/04/05 03:34:23;;;;;;;12.70;10.60;;;;;;;4.69;68.52;98127.86;128470;1287;101066;-77
2022/04/05 03:37:26;;;;;;;185.60;64.70;;;;;;;4.71;68.62;98132.88;128455;1287;98927;-74
2022/04/05 03:40:31;;;;;;;20.50;14.20;;;;;;;4.76;68.42;98128.83;128448;1287;101326;-74
2022/04/05 03:43:34;;;;;;;16.00;12.90;;;;;;;4.83;68.86;98133.73;128412;1287;98200;-75
2022/04/05 03:46:38;;;;;;;22.30;17.50;;;;;;;4.85;68.55;98124.71;128411;1287;98674;-75
2022/04/05 03:49:41;;;;;;;20.80;15.10;;;;;;;4.86;68.58;98126.36;128437;1287;98575;-76
2022/04/05 03:52:44;;;;;;;14.60;11.60;;;;;;;4.84;68.81;98116.91;128419;1287;98432;-75
2022/04/05 03:55:49;;;;;;;14.00;11.80;;;;;;;4.82;69.13;98121.39;128501;1287;98188;-75
2022/04/05 03:58:52;;;;;;;15.20;12.30;;;;;;;4.78;69.46;98121.77;128449;1287;99357;-76
2022/04/05 04:01:55;;;;;;;14.10;11.40;;;;;;;4.80;68.77;98123.51;130000;1285;97967;-75
2022/04/05 04:04:58;;;;;;;16.70;12.00;;;;;;;4.88;68.97;98122.13;128493;1287;98041;-76
2022/04/05 04:08:02;;;;;;;13.60;12.20;;;;;;;4.94;68.78;98121.22;128479;1287;98087;-76
2022/04/05 04:11:06;;;;;;;12.60;11.20;;;;;;;4.98;69.06;98119.20;128531;1287;98726;-75
2022/04/05 04:14:09;;;;;;;13.70;11.10;;;;;;;5.00;68.76;98118.85;128452;1287;98004;-75
2022/04/05 04:17:13;;;;;;;15.30;12.40;;;;;;;5.01;68.84;98117.96;128377;1287;98093;-74
2022/04/05 04:20:16;;;;;;;14.30;11.50;;;;;;;5.02;68.71;98122.66;128549;1287;98030;-76
2022/04/05 04:23:19;;;;;;;12.60;10.40;;;;;;;5.02;69.05;98123.58;128544;1287;98056;-76
2022/04/05 04:26:24;;;;;;;13.10;10.50;;;;;;;5.03;68.91;98125.15;128502;1287;98463;-76
2022/04/05 04:29:27;;;;;;;12.30;10.40;;;;;;;5.09;68.88;98125.41;128458;1287;99226;-75
2022/04/05 04:32:30;;;;;;;12.10;10.40;;;;;;;5.17;68.76;98119.83;128352;1287;99148;-77
2022/04/05 04:35:34;;;;;;;11.10;9.90;;;;;;;5.21;68.64;98126.56;128368;1287;98034;-76
2022/04/05 04:38:37;;;;;;;11.80;10.00;;;;;;;5.23;68.73;98126.81;128471;1287;98093;-76
2022/04/05 04:41:39;;;;;;;15.10;11.70;;;;;;;5.25;68.65;98122.55;128547;1286;99188;-75
2022/04/05 04:44:42;;;;;;;14.70;12.20;;;;;;;5.22;68.87;98126.95;128415;1287;98117;-75
2022/04/05 04:47:45;;;;;;;14.00;11.50;;;;;;;5.21;68.52;98131.27;128470;1287;98681;-74
2022/04/05 04:50:47;;;;;;;13.10;10.70;;;;;;;5.24;68.73;98132.75;128461;1287;98085;-75
2022/04/05 04:53:50;;;;;;;77.70;48.30;;;;;;;5.25;68.91;98143.33;128483;1287;98523;-73
2022/04/05 04:56:53;;;;;;;33.90;22.80;;;;;;;5.34;68.77;98139.92;128400;1287;98030;-77
2022/04/05 04:59:56;;;;;;;21.70;17.00;;;;;;;5.41;68.81;98136.00;128530;1287;99188;-74
2022/04/05 05:02:58;;;;;;;15.20;12.50;;;;;;;5.46;68.66;98136.23;128635;1287;98027;-76
2022/04/05 05:06:02;;;;;;;31.50;25.30;;;;;;;5.49;68.63;98137.47;128577;1287;111355;-76
2022/04/05 05:09:05;;;;;;;20.00;16.70;;;;;;;5.47;69.00;98137.34;128591;1287;112569;-75
2022/04/05 05:12:11;;;;;;;15.20;12.60;;;;;;;5.43;68.92;98141.89;128604;1285;112384;-75
2022/04/05 05:15:17;;;;;;;11.80;9.70;;;;;;;5.40;69.07;98139.40;128498;1285;112208;-76
2022/04/05 05:18:20;;;;;;;43.00;27.30;;;;;;;5.39;68.98;98142.55;128620;1285;112268;-77
2022/04/05 05:21:23;;;;;;;15.20;11.50;;;;;;;5.42;69.34;98145.25;128813;1285;98679;-76
2022/04/05 05:24:26;;;;;;;11.70;10.50;;;;;;;5.47;69.14;98144.75;128831;1285;98189;-77
2022/04/05 05:27:29;;;;;;;12.10;10.60;;;;;;;5.58;69.43;98150.45;128836;1285;98107;-77
2022/04/05 05:30:33;;;;;;;14.40;12.90;;;;;;;5.69;69.11;98150.59;128837;1285;112362;-75
2022/04/05 05:33:35;;;;;;;12.40;10.70;;;;;;;5.79;68.93;98151.99;128841;1285;112819;-76
2022/04/05 05:36:38;;;;;;;22.20;17.40;;;;;;;5.82;68.95;98155.52;128861;1285;98031;-76
2022/04/05 05:39:41;;;;;;;23.70;17.30;;;;;;;5.84;68.73;98160.14;128790;1285;99190;-76
2022/04/05 05:42:51;;;;;;;16.30;13.50;;;;;;;5.86;68.55;98169.79;128970;1285;98027;-75
2022/04/05 05:45:54;;;;;;;26.20;19.80;;;;;;;5.88;68.47;98176.98;129024;1285;112307;-75
2022/04/05 05:48:57;;;;;;;17.40;13.70;;;;;;;5.88;68.61;98177.59;128541;1287;99095;-74
2022/04/05 05:51:59;;;;;;;23.40;18.00;;;;;;;5.90;68.50;98183.90;128739;1285;99076;-77
2022/04/05 05:55:02;;;;;;;18.70;14.40;;;;;;;6.00;68.29;98190.27;128664;1285;98676;-76
2022/04/05 05:58:05;;;;;;;68.10;26.10;;;;;;;6.10;68.28;98192.01;128716;1285;98797;-76
2022/04/05 06:01:08;;;;;;;121.80;54.60;;;;;;;6.22;68.05;98188.95;128790;1285;99214;-75
2022/04/05 06:04:10;;;;;;;15.20;11.40;;;;;;;6.31;68.04;98187.01;128719;1285;98782;-76
2022/04/05 06:07:13;;;;;;;11.20;8.90;;;;;;;6.41;67.76;98188.53;128663;1285;98543;-77
2022/04/05 06:10:17;;;;;;;9.90;8.70;;;;;;;6.48;67.85;98191.27;128758;1285;98982;-76
2022/04/05 06:13:21;;;;;;;12.40;10.80;;;;;;;6.59;67.53;98196.17;128887;1285;108721;-77
2022/04/05 06:16:23;;;;;;;13.40;11.40;;;;;;;6.68;67.64;98195.45;128855;1285;107841;-75
2022/04/05 06:19:26;;;;;;;14.30;11.50;;;;;;;6.78;67.21;98196.61;128528;1285;98446;-75
2022/04/05 06:22:29;;;;;;;23.30;18.40;;;;;;;6.88;67.31;98201.73;128813;1285;99242;-76
2022/04/05 06:25:33;;;;;;;17.90;14.10;;;;;;;6.93;67.11;98205.56;128671;1284;98778;-77
2022/04/05 06:28:36;;;;;;;14.70;12.40;;;;;;;7.04;66.98;98209.81;128637;1285;108433;-77
2022/04/05 06:31:39;;;;;;;17.20;12.70;;;;;;;7.10;66.77;98217.59;128785;1285;98020;-76
2022/04/05 06:34:41;;;;;;;44.20;23.20;;;;;;;7.16;66.67;98221.10;128465;1285;99212;-74
2022/04/05 06:37:45;;;;;;;9.30;8.20;;;;;;;7.21;66.28;98220.55;128534;1285;99210;-75
2022/04/05 06:40:48;;;;;;;9.00;6.60;;;;;;;7.21;65.76;98229.21;128336;1287;99191;-75
2022/04/05 06:43:51;;;;;;;7.90;6.30;;;;;;;7.24;65.22;98225.30;128509;1286;108805;-75
2022/04/05 06:46:54;;;;;;;9.70;5.80;;;;;;;7.28;65.59;98217.23;128462;1287;98538;-76
2022/04/05 06:49:56;;;;;;;9.40;7.50;;;;;;;7.40;64.99;98215.11;128501;1286;98718;-76
2022/04/05 06:53:00;;;;;;;12.50;9.80;;;;;;;7.52;64.41;98214.55;128536;1285;99165;-75
2022/04/05 06:56:04;;;;;;;10.00;8.40;;;;;;;7.47;63.30;98214.94;128348;1286;108748;-76
2022/04/05 06:59:06;;;;;;;5.70;5.10;;;;;;;7.44;64.13;98217.46;128433;1287;108786;-77
2022/04/05 07:02:11;;;;;;;5.30;4.40;;;;;;;7.42;63.51;98221.19;128457;1287;98106;-75
2022/04/05 07:05:14;;;;;;;26.40;20.60;;;;;;;7.31;62.56;98223.93;128481;1285;108711;-75
2022/04/05 07:08:16;;;;;;;30.70;22.50;;;;;;;7.29;63.28;98227.42;128363;1287;98529;-76
2022/04/05 07:11:19;;;;;;;21.10;12.10;;;;;;;7.32;61.90;98234.70;128467;1285;98046;-74
2022/04/05 07:14:22;;;;;;;36.70;24.00;;;;;;;7.28;62.57;98227.64;128470;1285;98522;-75
2022/04/05 07:17:25;;;;;;;115.40;64.40;;;;;;;7.28;63.05;98233.02;128832;1285;98714;-77
2022/04/05 07:20:28;;;;;;;33.40;20.20;;;;;;;7.26;62.86;98231.60;128840;1285;99283;-77
2022/04/05 07:23:31;;;;;;;42.70;25.10;;;;;;;7.26;62.14;98238.54;128947;1285;98122;-75
2022/04/05 07:26:33;;;;;;;33.40;19.30;;;;;;;7.14;62.11;98243.30;128952;1285;99183;-75
2022/04/05 07:29:36;;;;;;;21.70;12.80;;;;;;;7.00;62.60;98253.04;129054;1285;98022;-74
2022/04/05 07:32:41;;;;;;;50.10;26.30;;;;;;;7.00;62.89;98244.80;128726;1285;99195;-74
2022/04/05 07:35:43;;;;;;;37.80;20.00;;;;;;;7.19;62.72;98250.39;128688;1285;97997;-73
2022/04/05 07:38:46;;;;;;;41.00;22.70;;;;;;;7.34;61.86;98248.87;128690;1285;99181;-75
2022/04/05 07:41:50;;;;;;;37.70;22.10;;;;;;;7.38;62.39;98252.97;128629;1285;99012;-76
2022/04/05 07:44:53;;;;;;;52.00;27.90;;;;;;;7.34;62.23;98260.55;128630;1285;107924;-73
2022/04/05 07:47:55;;;;;;;42.10;21.50;;;;;;;7.22;62.09;98261.59;128514;1285;98114;-74
2022/04/05 07:51:00;;;;;;;32.50;18.40;;;;;;;7.08;61.92;98268.95;128739;1285;99171;-76
2022/04/05 07:54:04;;;;;;;23.80;13.20;;;;;;;7.01;62.50;98274.64;128864;1285;108694;-76
2022/04/05 07:57:09;;;;;;;86.60;44.70;;;;;;;7.09;62.34;98279.41;128604;1287;108831;-77
2022/04/05 08:00:14;;;;;;;21.80;11.30;;;;;;;7.21;62.09;98286.30;128911;1285;108770;-74
2022/04/05 08:03:17;;;;;;;21.90;10.90;;;;;;;7.27;62.25;98283.37;128856;1285;108751;-74
2022/04/05 08:06:20;;;;;;;136.70;59.20;;;;;;;7.26;62.29;98290.54;128700;1285;98959;-73
2022/04/05 08:09:23;;;;;;;47.00;23.10;;;;;;;7.21;62.32;98288.30;128650;1285;98032;-76
2022/04/05 08:12:25;;;;;;;184.60;85.40;;;;;;;7.31;62.22;98298.04;128709;1284;98212;-76
2022/04/05 08:15:28;;;;;;;56.90;28.70;;;;;;;7.51;62.34;98296.83;128456;1285;99181;-75
2022/04/05 08:18:31;;;;;;;30.40;16.50;;;;;;;7.76;61.93;98301.63;128517;1285;98005;-74
2022/04/05 08:21:33;;;;;;;10.40;6.40;;;;;;;7.96;61.36;98298.36;128660;1285;98796;-74
2022/04/05 08:24:36;;;;;;;20.50;12.10;;;;;;;8.03;60.98;98300.36;128379;1286;98021;-74
2022/04/05 08:27:39;;;;;;;30.80;16.30;;;;;;;8.04;60.63;98308.59;128523;1286;98781;-75
2022/04/05 08:30:42;;;;;;;9.00;5.50;;;;;;;7.98;60.91;98303.90;128799;1285;98436;-75
2022/04/05 08:33:45;;;;;;;55.60;30.70;;;;;;;7.92;60.65;98312.65;128438;1285;98207;-73
2022/04/05 08:36:49;;;;;;;16.90;8.60;;;;;;;7.85;60.59;98320.15;128804;1285;98618;-75
2022/04/05 08:39:52;;;;;;;41.00;21.00;;;;;;;7.63;60.15;98331.30;128469;1285;98080;-74
2022/04/05 08:42:57;;;;;;;28.20;13.90;;;;;;;7.41;61.12;98326.70;128915;1285;98228;-75
2022/04/05 08:46:01;;;;;;;53.20;25.90;;;;;;;7.39;61.49;98330.90;128736;1285;99070;-76
2022/04/05 08:49:04;;;;;;;30.10;15.60;;;;;;;7.48;61.58;98331.62;128654;1285;98028;-74
2022/04/05 08:52:08;;;;;;;57.40;28.30;;;;;;;7.54;62.06;98339.42;128658;1285;99198;-75
2022/04/05 08:55:11;;;;;;;140.00;61.70;;;;;;;7.70;62.04;98343.35;128793;1285;99177;-73
2022/04/05 08:58:14;;;;;;;55.60;25.40;;;;;;;7.83;61.55;98349.29;128466;1285;98101;-74
2022/04/05 09:01:17;;;;;;;91.40;41.40;;;;;;;7.85;61.58;98350.88;128496;1287;97987;-74
2022/04/05 09:04:20;;;;;;;46.50;21.50;;;;;;;7.88;61.77;98355.04;128441;1287;99102;-76
2022/04/05 09:07:24;;;;;;;17.30;9.60;;;;;;;7.97;61.58;98363.00;128572;1285;99257;-74
2022/04/05 09:10:27;;;;;;;8.70;6.20;;;;;;;8.06;61.80;98366.20;128794;1285;98676;-74
2022/04/05 09:13:31;;;;;;;10.00;6.20;;;;;;;8.12;61.54;98369.71;128968;1285;98642;-72
2022/04/05 09:16:35;;;;;;;10.10;6.50;;;;;;;8.19;61.72;98367.31;128873;1285;98117;-75
2022/04/05 09:19:42;;;;;;;10.70;7.60;;;;;;;8.30;62.08;98377.75;128939;1285;99184;-73
2022/04/05 09:22:45;;;;;;;7.00;4.80;;;;;;;8.37;61.83;98379.33;128841;1285;98863;-73
2022/04/05 09:25:55;;;;;;;11.60;8.00;;;;;;;8.31;61.61;98378.96;128753;1285;99071;-74
2022/04/05 09:29:07;;;;;;;21.90;12.90;;;;;;;8.26;61.43;98381.17;128661;1285;98102;-74
2022/04/05 09:32:30;;;;;;;75.20;41.10;;;;;;;8.21;61.70;98376.03;128524;1285;98760;-73
2022/04/05 09:35:42;;;;;;;7.60;5.90;;;;;;;8.12;61.57;98382.27;128546;1285;99247;-74
2022/04/05 09:38:45;;;;;;;7.10;4.90;;;;;;;7.98;61.42;98385.58;128764;1285;99209;-74
2022/04/05 09:41:52;;;;;;;14.00;9.60;;;;;;;7.96;61.72;98383.88;129029;1285;99192;-75
2022/04/05 09:44:54;;;;;;;6.70;5.10;;;;;;;8.05;61.28;98395.73;128939;1285;98511;-75
2022/04/05 09:48:05;;;;;;;9.40;5.70;;;;;;;8.02;61.44;98392.50;128867;1285;98511;-72
2022/04/05 09:51:10;;;;;;;16.00;11.00;;;;;;;8.01;61.82;98393.88;128668;1285;98986;-74
2022/04/05 09:54:27;;;;;;;12.80;6.50;;;;;;;8.11;61.71;98390.91;128329;1285;98623;-74
2022/04/05 09:57:32;;;;;;;46.80;18.60;;;;;;;8.23;61.48;98389.81;128428;1285;99185;-74
2022/04/05 10:00:35;;;;;;;15.20;7.00;;;;;;;8.45;60.43;98391.53;128441;1285;99187;-74
2022/04/05 10:03:39;;;;;;;13.00;7.30;;;;;;;8.67;59.10;98395.45;128697;1285;98788;-75
2022/04/05 10:06:44;;;;;;;33.80;16.00;;;;;;;8.84;58.31;98395.21;128688;1285;98003;-75
2022/04/05 10:09:46;;;;;;;9.00;4.40;;;;;;;9.10;58.08;98388.23;128673;1285;99217;-71
2022/04/05 10:12:49;;;;;;;6.00;3.60;;;;;;;9.25;57.51;98387.02;128736;1285;99282;-73
2022/04/05 10:15:53;;;;;;;6.40;3.20;;;;;;;9.48;57.07;98386.98;128707;1285;101503;-73
2022/04/05 10:18:58;;;;;;;14.00;5.90;;;;;;;9.62;56.88;98387.70;128679;1286;98020;-71
2022/04/05 10:22:01;;;;;;;7.30;3.50;;;;;;;9.62;56.63;98395.75;128503;1285;98101;-73
2022/04/05 10:25:07;;;;;;;7.30;2.50;;;;;;;9.27;51.56;98406.08;128473;1285;98418;-73
2022/04/05 10:28:10;;;;;;;3.80;2.00;;;;;;;8.97;52.22;98405.34;128541;1285;98003;-72
2022/04/05 10:31:17;;;;;;;9.70;3.80;;;;;;;8.93;51.22;98403.40;128398;1285;97989;-72
2022/04/05 10:34:25;;;;;;;12.80;6.20;;;;;;;8.75;49.69;98412.98;128547;1287;98709;-73
2022/04/05 10:37:32;;;;;;;7.70;3.10;;;;;;;8.51;50.49;98431.89;128534;1287;99197;-72
2022/04/05 10:40:35;;;;;;;5.20;1.80;;;;;;;8.29;51.03;98422.14;128496;1287;98033;-72
2022/04/05 10:43:39;;;;;;;12.20;3.50;;;;;;;8.17;49.62;98426.84;128443;1286;99105;-72
2022/04/05 10:46:43;;;;;;;20.30;6.70;;;;;;;8.32;50.38;98428.65;128482;1285;98024;-72
2022/04/05 10:49:47;;;;;;;17.20;7.60;;;;;;;8.62;49.18;98426.94;128453;1285;98430;-71
2022/04/05 10:53:11;;;;;;;14.90;5.20;;;;;;;8.89;49.50;98420.88;128328;1287;98052;-71
2022/04/05 10:56:17;;;;;;;12.90;4.40;;;;;;;9.13;47.74;98427.96;128395;1287;98001;-72
2022/04/05 10:59:20;;;;;;;9.00;2.50;;;;;;;9.16;46.62;98442.38;128410;1287;99118;-72
2022/04/05 11:02:35;;;;;;;13.80;3.30;;;;;;;9.00;47.01;98431.02;128529;1287;99127;-71
2022/04/05 11:05:38;;;;;;;7.50;2.80;;;;;;;9.19;47.20;98435.39;130746;1275;99172;-71
2022/04/05 11:08:42;;;;;;;14.40;4.10;;;;;;;9.42;47.48;98439.93;128615;1287;98650;-73
2022/04/05 11:11:44;;;;;;;8.00;2.80;;;;;;;9.48;46.44;98445.23;128880;1285;98759;-72
2022/04/05 11:14:51;;;;;;;14.50;5.10;;;;;;;9.56;45.58;98442.96;128891;1285;98441;-73
2022/04/05 11:17:55;;;;;;;24.60;13.70;;;;;;;9.61;46.06;98439.86;128671;1285;99084;-73
2022/04/05 11:20:59;;;;;;;17.40;8.90;;;;;;;9.74;46.22;98448.70;128772;1285;97990;-73
2022/04/05 11:24:01;;;;;;;18.60;12.20;;;;;;;9.70;45.46;98456.23;128404;1285;98233;-72
2022/04/05 11:27:29;;;;;;;7.70;3.80;;;;;;;9.74;46.85;98459.55;128360;1285;98029;-72
2022/04/05 11:30:51;;;;;;;11.00;3.20;;;;;;;9.77;44.40;98452.48;128462;1285;98120;-73
2022/04/05 11:33:54;;;;;;;9.90;2.90;;;;;;;9.84;46.19;98444.10;128532;1285;98093;-73
2022/04/05 11:36:57;;;;;;;9.20;2.20;;;;;;;10.17;45.00;98446.71;128498;1285;98707;-72
2022/04/05 11:40:02;;;;;;;7.10;2.80;;;;;;;10.32;45.32;98441.63;128476;1285;98738;-72
2022/04/05 11:43:05;;;;;;;18.10;5.60;;;;;;;10.53;45.33;98440.02;128639;1285;99095;-73
2022/04/05 11:46:10;;;;;;;13.20;4.40;;;;;;;10.71;45.76;98444.91;128495;1285;99114;-73
2022/04/05 11:49:13;;;;;;;10.70;3.00;;;;;;;10.64;42.53;98450.21;128453;1285;98210;-72
2022/04/05 11:52:16;;;;;;;12.30;3.10;;;;;;;10.16;43.43;98460.77;128532;1285;98021;-73
2022/04/05 11:58:45;;;;;;;11.90;2.70;;;;;;;9.52;42.65;98482.61;128316;1287;99194;-73
2022/04/05 12:01:49;;;;;;;13.40;3.40;;;;;;;9.30;43.22;98478.91;128568;1285;98083;-72
2022/04/05 12:04:55;;;;;;;50.10;18.50;;;;;;;9.26;43.58;98484.35;128460;1285;98713;-73
2022/04/05 12:07:58;;;;;;;10.10;2.60;;;;;;;9.47;43.15;98472.83;128425;1285;98003;-73
2022/04/05 12:11:00;;;;;;;9.00;2.50;;;;;;;9.53;43.06;98480.13;128480;1286;99191;-72
2022/04/05 12:14:05;;;;;;;33.00;13.70;;;;;;;9.69;44.18;98474.50;128589;1285;98856;-72
2022/04/05 12:17:07;;;;;;;7.70;2.30;;;;;;;9.75;43.22;98486.31;128603;1285;99198;-72
2022/04/05 12:20:12;;;;;;;13.30;2.20;;;;;;;9.85;44.13;98479.19;128313;1287;98708;-71
2022/04/05 12:23:20;;;;;;;17.80;5.70;;;;;;;9.87;42.44;98484.33;128270;1287;154719;-72
2022/04/05 12:26:24;;;;;;;13.70;4.10;;;;;;;9.73;42.83;98488.22;128418;1287;98023;-72
2022/04/05 12:29:29;;;;;;;126.30;46.80;;;;;;;9.69;42.70;98499.99;128413;1287;99105;-70
2022/04/05 12:32:35;;;;;;;23.40;9.10;;;;;;;9.70;43.27;98495.69;128323;1287;98004;-71
2022/04/05 12:35:38;;;;;;;12.10;3.40;;;;;;;9.82;43.44;98492.65;128458;1287;98797;-74
2022/04/05 12:38:41;;;;;;;13.50;5.30;;;;;;;10.06;43.30;98496.33;128436;1287;98217;-73
2022/04/05 12:41:46;;;;;;;12.20;3.10;;;;;;;9.99;41.22;98501.06;128397;1287;97999;-73
2022/04/05 12:44:57;;;;;;;8.80;3.50;;;;;;;9.77;41.40;98518.13;128399;1287;97972;-72
2022/04/05 12:48:11;;;;;;;13.80;4.90;;;;;;;9.53;42.47;98518.14;128509;1287;98787;-75
2022/04/05 12:51:31;;;;;;;43.10;21.80;;;;;;;9.45;43.19;98517.08;128466;1285;98964;-71
2022/04/05 12:54:36;;;;;;;13.90;4.90;;;;;;;9.53;43.25;98518.06;128460;1285;98074;-71
2022/04/05 12:57:40;;;;;;;16.10;6.60;;;;;;;9.66;43.13;98517.58;128617;1285;98810;-72
2022/04/05 13:00:44;;;;;;;31.00;13.10;;;;;;;9.80;42.49;98523.09;128556;1285;98077;-72
2022/04/05 13:03:47;;;;;;;41.90;18.00;;;;;;;9.78;40.31;98527.16;128503;1285;99207;-73
2022/04/05 13:06:53;;;;;;;15.50;5.50;;;;;;;9.77;41.13;98526.00;128496;1285;99214;-72
2022/04/05 13:09:56;;;;;;;25.80;12.10;;;;;;;9.87;40.10;98525.69;128546;1285;98427;-72
2022/04/05 13:13:13;;;;;;;77.80;34.10;;;;;;;9.82;40.97;98527.48;128505;1285;98148;-73
2022/04/05 13:16:15;;;;;;;47.40;21.00;;;;;;;9.84;41.98;98523.81;128472;1285;97994;-72
2022/04/05 13:19:20;;;;;;;54.00;25.80;;;;;;;10.00;40.71;98523.50;128480;1285;98004;-71
2022/04/05 13:22:22;;;;;;;42.40;17.30;;;;;;;10.03;41.41;98514.38;128603;1285;98722;-73
2022/04/05 13:25:33;;;;;;;15.00;8.10;;;;;;;10.17;40.94;98516.85;128632;1285;98536;-73
2022/04/05 13:28:37;;;;;;;6.60;2.80;;;;;;;10.30;40.68;98511.98;128634;1285;98003;-73
2022/04/05 13:31:46;;;;;;;8.40;3.00;;;;;;;10.54;40.46;98520.77;128482;1285;98018;-73
2022/04/05 13:34:49;;;;;;;13.00;2.20;;;;;;;10.63;39.65;98523.45;128589;1283;98002;-72
2022/04/05 13:37:51;;;;;;;9.70;2.40;;;;;;;10.46;38.14;98531.96;128544;1285;98143;-72
2022/04/05 13:40:55;;;;;;;9.10;2.70;;;;;;;10.34;38.50;98525.88;128591;1285;98505;-73
2022/04/05 13:43:57;;;;;;;12.80;4.10;;;;;;;10.29;39.94;98529.98;128514;1286;98028;-72
2022/04/05 13:47:01;;;;;;;15.00;3.80;;;;;;;10.23;39.82;98535.21;128551;1287;98006;-70
2022/04/05 13:50:05;;;;;;;9.80;2.50;;;;;;;10.13;40.05;98542.51;128312;1287;98585;-74
2022/04/05 13:53:08;;;;;;;14.80;3.10;;;;;;;9.95;38.91;98556.12;128416;1287;98140;-73
2022/04/05 13:56:12;;;;;;;25.10;9.60;;;;;;;9.82;39.04;98553.14;128414;1287;99212;-72
2022/04/05 13:59:14;;;;;;;11.00;3.70;;;;;;;9.89;40.13;98555.73;128506;1287;98149;-72
2022/04/05 14:02:18;;;;;;;11.00;3.90;;;;;;;9.84;39.84;98565.73;128361;1286;98459;-74
2022/04/05 14:05:21;;;;;;;12.40;8.00;;;;;;;9.66;39.45;98578.34;128374;1287;99212;-72
2022/04/05 14:08:24;;;;;;;8.90;3.10;;;;;;;9.57;40.17;98572.98;128468;1287;98131;-72
2022/04/05 14:11:26;;;;;;;9.90;3.20;;;;;;;9.56;41.06;98571.30;128500;1285;98604;-72
2022/04/05 14:14:29;;;;;;;22.60;9.60;;;;;;;9.71;41.09;98574.52;128574;1285;98113;-74
2022/04/05 14:17:32;;;;;;;12.40;6.10;;;;;;;9.71;39.59;98579.33;128497;1285;98113;-74